Pollards Corner, Georgia
Current Conditions -  °F | °C
As of 11:35 PM on Wednesday 26 Nov 2014 (Local Time) from KHQU Reporting Station
Overcast Overcast  
Wind Chill: 44°   Ceiling: 9500
Heat Index: 44°   Visibility: 10mi
Dew Point: 36°   Wind: 3mph
Humidity: 74%   Direction: 190°S
Pressure: 30.13"   Gusts: NA
Location:  33.6237°N, 82.2874°W
Report Text: KHQU 270435Z AUTO 19003KT 10SM BKN095 OVC120 07/02 A3013 RMK AO1 T00660022
Loading
Personal Weather Stations






























Interactive Weather Map New forecast layout! Learn more

10-Day Weather Forecast

Advertisements
Track Severe Weather on mobile